Time;durP1;ratioP1;P1;durP2;ratioP2;P2;SDS_P1;SDS_P2;PMS_P1;PMS_P2;Temp;Humidity;BMP_temperature;BMP_pressure;BME280_temperature;BME280_humidity;BME280_pressure;Samples;Min_cycle;Max_cycle;Signal;HPM_P1;HPM_P2
2022/03/10 00:01:26;;;;;;;11.75;6.72;;;;;;;2.46;34.37;102512.69;4977169;28;20044;-78
2022/03/10 00:03:52;;;;;;;11.15;6.05;;;;;;;2.40;34.58;102516.84;4960951;28;20038;-80
2022/03/10 00:06:18;;;;;;;15.85;6.57;;;;;;;2.24;34.91;102513.97;4963415;28;20030;-79
2022/03/10 00:08:44;;;;;;;13.98;6.20;;;;;;;2.27;34.97;102508.88;4972078;28;20140;-79
2022/03/10 00:11:09;;;;;;;14.70;6.57;;;;;;;2.26;35.03;102506.25;4962439;28;20038;-79
2022/03/10 00:13:34;;;;;;;9.15;5.32;;;;;;;2.24;35.06;102505.34;4972850;28;20407;-80
2022/03/10 00:16:00;;;;;;;15.40;7.20;;;;;;;2.21;35.19;102506.16;4982502;28;20030;-80
2022/03/10 00:18:25;;;;;;;11.85;5.63;;;;;;;2.17;35.33;102506.06;4964004;28;20496;-80
2022/03/10 00:20:51;;;;;;;13.70;6.53;;;;;;;2.09;35.39;102508.47;4987019;28;20045;-80
2022/03/10 00:23:17;;;;;;;16.65;7.03;;;;;;;2.02;35.47;102514.31;4964054;28;20049;-80
2022/03/10 00:25:42;;;;;;;11.90;6.35;;;;;;;1.94;36.16;102506.44;4972670;28;20041;-79
2022/03/10 00:28:08;;;;;;;10.60;6.63;;;;;;;1.96;36.08;102519.38;4964211;28;20424;-80
2022/03/10 00:30:33;;;;;;;13.77;6.07;;;;;;;1.96;35.84;102514.22;4962168;28;20117;-79
2022/03/10 00:32:59;;;;;;;10.82;6.57;;;;;;;1.88;36.25;102512.31;4963728;28;20038;-79
2022/03/10 00:35:25;;;;;;;10.35;6.38;;;;;;;1.87;36.04;102517.44;4974630;28;20045;-80
2022/03/10 00:37:52;;;;;;;12.40;6.45;;;;;;;1.84;36.15;102525.09;4965985;28;20047;-80
2022/03/10 00:40:19;;;;;;;10.18;6.40;;;;;;;1.81;36.26;102525.03;4962316;28;20045;-80
2022/03/10 00:42:45;;;;;;;13.50;7.13;;;;;;;1.77;36.55;102518.94;4979807;28;20451;-79
2022/03/10 00:45:12;;;;;;;11.38;6.72;;;;;;;1.72;36.53;102521.41;4971990;28;20069;-79
2022/03/10 00:47:38;;;;;;;12.32;6.63;;;;;;;1.73;36.49;102523.16;4960124;28;20154;-79
2022/03/10 00:50:04;;;;;;;13.52;7.10;;;;;;;1.65;36.78;102522.09;4962414;28;20424;-80
2022/03/10 00:52:30;;;;;;;14.48;7.07;;;;;;;1.65;36.90;102509.22;4961453;28;20065;-79
2022/03/10 00:54:56;;;;;;;14.80;7.00;;;;;;;1.61;36.99;102514.25;4974918;28;20113;-79
2022/03/10 00:57:22;;;;;;;15.00;6.93;;;;;;;1.63;36.86;102520.31;4978959;28;20380;-80
2022/03/10 00:59:47;;;;;;;13.07;7.20;;;;;;;1.59;36.88;102523.66;4962181;28;20042;-78
2022/03/10 01:02:13;;;;;;;11.32;6.65;;;;;;;1.35;37.45;102529.03;4961804;28;20169;-79
2022/03/10 01:04:39;;;;;;;11.50;6.45;;;;;;;1.27;38.11;102527.16;4975396;28;20030;-81
2022/03/10 01:07:04;;;;;;;10.43;6.07;;;;;;;1.34;37.92;102528.19;4973827;28;20031;-79
2022/03/10 01:09:30;;;;;;;17.17;7.78;;;;;;;1.44;37.65;102535.34;4958955;28;20031;-78
2022/03/10 01:11:55;;;;;;;11.38;7.85;;;;;;;1.49;37.52;102528.59;4973484;28;20038;-80
2022/03/10 01:14:20;;;;;;;14.18;7.03;;;;;;;1.49;37.52;102528.59;4977688;28;20089;-79
2022/03/10 01:16:46;;;;;;;10.32;5.80;;;;;;;1.54;37.66;102526.13;4962612;28;20061;-79
2022/03/10 01:19:11;;;;;;;12.27;6.90;;;;;;;1.52;37.36;102532.94;4957807;28;20046;-80
2022/03/10 01:21:37;;;;;;;17.83;7.85;;;;;;;1.45;37.82;102521.63;4977471;28;20035;-77
2022/03/10 01:24:03;;;;;;;14.45;7.32;;;;;;;1.39;37.99;102524.00;4962681;28;20117;-79
2022/03/10 01:26:28;;;;;;;17.35;7.10;;;;;;;1.36;38.13;102526.53;4962537;28;20096;-78
2022/03/10 01:28:54;;;;;;;14.10;7.43;;;;;;;1.32;38.22;102533.28;4974902;28;20967;-80
2022/03/10 01:31:19;;;;;;;22.80;8.50;;;;;;;1.23;38.57;102530.47;4979243;28;20488;-79
2022/03/10 01:33:46;;;;;;;12.43;6.55;;;;;;;1.25;38.53;102525.38;4960755;28;20046;-79
2022/03/10 01:36:12;;;;;;;13.60;7.47;;;;;;;1.28;38.57;102522.88;4961057;28;20035;-79
2022/03/10 01:38:39;;;;;;;10.45;5.85;;;;;;;1.13;38.88;102523.38;4959743;28;20046;-79
2022/03/10 01:41:09;;;;;;;16.77;7.55;;;;;;;1.20;38.75;102521.81;4962881;28;20873;-80
2022/03/10 01:43:58;;;;;;;13.90;7.18;;;;;;;1.14;38.69;102519.09;4962065;28;20043;-79
2022/03/10 01:46:24;;;;;;;14.30;6.85;;;;;;;1.16;38.87;102507.13;4970815;28;20030;-78
2022/03/10 01:48:50;;;;;;;15.10;6.63;;;;;;;1.09;38.74;102513.81;4970341;28;20060;-80
2022/03/10 01:51:16;;;;;;;11.18;6.32;;;;;;;0.89;38.82;102513.28;4988666;28;20039;-79
2022/03/10 01:53:42;;;;;;;12.85;6.80;;;;;;;1.00;38.84;102518.72;4994391;28;20050;-78
2022/03/10 01:56:10;;;;;;;15.18;7.25;;;;;;;0.91;38.93;102514.22;4999522;28;20066;-80
2022/03/10 01:58:36;;;;;;;9.80;6.25;;;;;;;0.86;39.45;102518.38;4978602;28;20050;-80
2022/03/10 02:01:02;;;;;;;13.90;6.43;;;;;;;0.78;39.65;102509.56;4987448;28;20056;-79
2022/03/10 02:03:27;;;;;;;17.33;7.65;;;;;;;0.78;39.75;102519.84;4973233;28;20046;-80
2022/03/10 02:05:54;;;;;;;15.75;6.93;;;;;;;0.72;39.69;102509.38;4987028;28;20049;-80
2022/03/10 02:11:06;;;;;;;12.55;6.57;;;;;;;0.54;40.03;102508.03;4973717;28;20049;-79
2022/03/10 02:13:31;;;;;;;9.98;6.40;;;;;;;0.53;39.91;102508.03;4972575;28;20041;-80
2022/03/10 02:18:41;;;;;;;12.57;7.55;;;;;;;0.52;40.18;102501.97;4972226;28;20070;-79
2022/03/10 02:21:06;;;;;;;13.32;6.82;;;;;;;0.51;40.14;102505.41;4977738;28;20058;-81
2022/03/10 02:23:32;;;;;;;11.38;6.53;;;;;;;0.52;40.29;102501.13;4961472;28;20670;-79
2022/03/10 02:26:00;;;;;;;16.60;7.60;;;;;;;0.56;39.94;102502.94;4956619;28;20113;-79
2022/03/10 02:28:27;;;;;;;15.27;7.53;;;;;;;0.53;40.07;102503.75;4973667;28;20540;-79
2022/03/10 02:30:54;;;;;;;15.52;7.38;;;;;;;0.51;39.83;102502.81;4962593;28;20053;-80
2022/03/10 02:33:19;;;;;;;15.60;6.75;;;;;;;0.42;40.13;102490.56;4961153;28;20038;-79
2022/03/10 02:35:45;;;;;;;13.70;6.88;;;;;;;0.35;40.12;102498.09;4973333;28;20062;-78
2022/03/10 02:38:20;;;;;;;13.27;6.00;;;;;;;0.38;40.18;102503.31;4989207;28;20093;-80
2022/03/10 02:40:48;;;;;;;12.95;7.15;;;;;;;0.34;40.56;102506.63;4986061;28;20042;-79
2022/03/10 02:43:14;;;;;;;15.52;6.72;;;;;;;0.34;40.61;102511.75;4952396;28;20431;-80
2022/03/10 02:45:40;;;;;;;14.55;7.07;;;;;;;0.37;40.37;102509.28;4976764;28;20042;-81
2022/03/10 02:48:06;;;;;;;13.07;7.53;;;;;;;0.34;40.32;102507.47;4975630;28;20041;-79
2022/03/10 02:50:32;;;;;;;15.90;6.65;;;;;;;0.35;40.31;102510.94;4971494;28;20030;-80
2022/03/10 02:52:57;;;;;;;16.75;7.95;;;;;;;0.31;40.36;102512.53;4974024;28;20096;-79
2022/03/10 02:55:23;;;;;;;17.40;8.05;;;;;;;0.18;40.54;102511.31;4960156;28;20042;-79
2022/03/10 02:57:49;;;;;;;10.95;6.60;;;;;;;0.11;41.11;102506.81;4971076;28;20034;-79
2022/03/10 03:00:16;;;;;;;15.00;8.50;;;;;;;0.25;40.95;102509.78;4959689;28;20038;-79
2022/03/10 03:02:42;;;;;;;19.13;8.43;;;;;;;0.31;40.50;102502.25;4972477;28;20054;-79
2022/03/10 03:05:12;;;;;;;15.63;7.13;;;;;;;0.21;40.90;102501.13;4976565;28;20061;-79
2022/03/10 03:07:38;;;;;;;15.82;6.47;;;;;;;0.24;40.79;102501.22;4971007;28;20081;-80
2022/03/10 03:10:05;;;;;;;15.52;6.97;;;;;;;0.40;40.39;102499.94;4992232;28;20050;-79
2022/03/10 03:12:32;;;;;;;16.98;7.53;;;;;;;0.43;40.15;102497.44;4963484;28;20124;-78
2022/03/10 03:14:58;;;;;;;12.82;6.57;;;;;;;0.48;40.25;102502.75;4958565;28;20046;-79
2022/03/10 03:17:26;;;;;;;31.95;6.90;;;;;;;0.47;40.35;102514.72;4962295;28;20076;-79
2022/03/10 03:19:53;;;;;;;15.10;7.15;;;;;;;0.48;39.87;102515.63;4971573;28;20042;-81
2022/03/10 03:22:18;;;;;;;17.92;7.28;;;;;;;0.44;40.46;102513.78;4964918;28;20129;-79
2022/03/10 03:24:45;;;;;;;17.05;7.38;;;;;;;0.34;40.40;102519.47;4963960;28;20030;-79
2022/03/10 03:27:11;;;;;;;11.45;6.40;;;;;;;0.39;40.31;102526.50;4963579;28;20042;-80
2022/03/10 03:29:37;;;;;;;11.27;6.88;;;;;;;0.35;39.62;102528.97;4974316;28;20477;-79
2022/03/10 03:32:03;;;;;;;10.20;6.07;;;;;;;0.20;39.89;102532.81;4976200;28;20048;-79
2022/03/10 03:34:29;;;;;;;13.95;7.45;;;;;;;-0.01;40.72;102545.03;4981030;28;20054;-79
2022/03/10 03:36:54;;;;;;;17.17;6.93;;;;;;;-0.11;41.33;102533.56;4981506;28;20061;-79
2022/03/10 03:39:20;;;;;;;17.08;8.10;;;;;;;-0.05;41.32;102540.63;4980233;28;20089;-79
2022/03/10 03:41:45;;;;;;;16.15;8.43;;;;;;;-0.08;41.36;102543.97;4975779;28;20484;-77
2022/03/10 03:44:11;;;;;;;16.15;7.05;;;;;;;-0.20;41.04;102541.88;4964599;28;20050;-80
2022/03/10 03:46:38;;;;;;;13.73;7.75;;;;;;;-0.30;41.63;102539.84;4964325;28;20042;-80
2022/03/10 03:49:04;;;;;;;13.75;7.18;;;;;;;-0.40;41.77;102535.22;4974175;28;20038;-81
2022/03/10 03:51:30;;;;;;;12.93;7.22;;;;;;;-0.44;42.14;102551.34;4964055;28;20043;-81
2022/03/10 03:53:55;;;;;;;10.98;6.85;;;;;;;-0.48;42.29;102557.22;4979474;28;20046;-79
2022/03/10 03:56:21;;;;;;;12.77;7.78;;;;;;;-0.52;42.18;102555.38;4963514;28;20027;-79
2022/03/10 03:58:46;;;;;;;10.20;6.70;;;;;;;-0.41;42.70;102557.47;4962743;28;20046;-80
2022/03/10 04:01:12;;;;;;;22.27;8.75;;;;;;;-0.37;42.71;102558.44;4960607;28;20043;-79
2022/03/10 04:03:38;;;;;;;16.50;7.32;;;;;;;-0.30;42.58;102562.97;4972156;28;20042;-80
2022/03/10 04:06:04;;;;;;;12.82;7.10;;;;;;;-0.27;42.45;102563.06;4959035;28;20153;-79
2022/03/10 04:08:30;;;;;;;13.75;7.05;;;;;;;-0.32;42.14;102559.47;4970643;28;20722;-79
2022/03/10 04:10:55;;;;;;;15.77;7.43;;;;;;;-0.28;42.53;102561.31;4983378;28;20046;-79
2022/03/10 04:13:24;;;;;;;12.40;7.07;;;;;;;-0.26;42.36;102559.69;4988981;28;20125;-79
2022/03/10 04:15:51;;;;;;;12.82;6.82;;;;;;;-0.16;42.05;102556.56;4982970;28;20026;-81
2022/03/10 04:18:17;;;;;;;14.75;7.10;;;;;;;-0.11;42.01;102560.97;4993571;28;20047;-81
2022/03/10 04:20:47;;;;;;;12.30;7.53;;;;;;;-0.22;42.40;102556.34;4972782;28;20034;-79
2022/03/10 04:23:14;;;;;;;13.85;7.88;;;;;;;-0.16;42.22;102554.00;4962550;28;20053;-79
2022/03/10 04:25:40;;;;;;;12.93;6.25;;;;;;;-0.12;41.82;102554.97;4964991;28;20034;-81
2022/03/10 04:28:06;;;;;;;11.93;6.32;;;;;;;-0.16;41.73;102551.41;4965229;28;20488;-79
2022/03/10 04:30:34;;;;;;;13.70;7.47;;;;;;;-0.21;42.06;102552.97;4963914;28;20630;-80
2022/03/10 04:33:01;;;;;;;17.80;7.53;;;;;;;-0.24;42.01;102557.13;4978901;28;20077;-80
2022/03/10 04:35:27;;;;;;;16.88;7.72;;;;;;;-0.26;42.09;102553.66;4957671;28;20018;-81
2022/03/10 04:37:54;;;;;;;12.45;7.63;;;;;;;-0.24;41.95;102555.44;4956744;28;20042;-80
2022/03/10 04:40:20;;;;;;;13.95;6.78;;;;;;;-0.25;42.13;102560.53;4962358;28;20034;-81
2022/03/10 04:42:47;;;;;;;13.55;7.85;;;;;;;-0.29;42.00;102564.69;4972576;28;20052;-80
2022/03/10 04:45:12;;;;;;;16.73;8.13;;;;;;;-0.30;42.00;102567.22;4958057;28;20176;-80
2022/03/10 04:47:40;;;;;;;15.63;6.70;;;;;;;-0.34;42.32;102568.81;4965417;28;20180;-79
2022/03/10 04:50:07;;;;;;;11.05;6.18;;;;;;;-0.33;41.93;102574.84;4979402;28;20042;-79
2022/03/10 04:52:33;;;;;;;14.13;7.07;;;;;;;-0.40;42.29;102566.91;4978657;28;20042;-80
2022/03/10 04:54:59;;;;;;;14.13;7.57;;;;;;;-0.41;42.29;102575.47;4975059;28;20451;-80
2022/03/10 04:57:24;;;;;;;16.95;8.00;;;;;;;-0.33;41.85;102575.69;4978876;28;20539;-80
2022/03/10 04:59:50;;;;;;;14.32;7.50;;;;;;;-0.46;42.46;102568.41;4961410;28;21192;-79
2022/03/10 05:02:15;;;;;;;15.35;7.32;;;;;;;-0.44;42.37;102565.06;4962159;28;20045;-79
2022/03/10 05:04:41;;;;;;;14.10;7.68;;;;;;;-0.48;42.45;102575.19;4970457;28;20112;-80
2022/03/10 05:07:06;;;;;;;16.55;7.95;;;;;;;-0.47;42.40;102569.25;4962814;28;20506;-80
2022/03/10 05:09:33;;;;;;;14.63;7.00;;;;;;;-0.50;42.49;102579.41;4962575;28;20555;-79
2022/03/10 05:11:59;;;;;;;14.05;7.03;;;;;;;-0.49;42.53;102581.16;4974172;28;20037;-79
2022/03/10 05:14:24;;;;;;;13.68;7.20;;;;;;;-0.42;41.99;102583.97;4962276;28;20050;-80
2022/03/10 05:16:50;;;;;;;15.60;7.97;;;;;;;-0.53;42.07;102587.00;4979510;28;20143;-79
2022/03/10 05:19:16;;;;;;;14.98;7.40;;;;;;;-0.69;42.18;102583.06;4975151;28;20249;-81
2022/03/10 05:21:42;;;;;;;17.50;8.50;;;;;;;-0.77;42.51;102593.06;4971871;28;20121;-79
2022/03/10 05:24:07;;;;;;;16.02;8.55;;;;;;;-0.85;43.06;102577.41;4978232;28;20077;-79
2022/03/10 05:26:33;;;;;;;15.70;7.60;;;;;;;-0.75;42.92;102583.72;4973072;28;20482;-79
2022/03/10 05:28:58;;;;;;;15.35;7.85;;;;;;;-0.78;42.98;102589.63;4973189;28;20753;-79
2022/03/10 05:31:24;;;;;;;18.02;7.97;;;;;;;-0.74;42.63;102597.44;4962115;28;20460;-80
2022/03/10 05:33:50;;;;;;;12.07;6.95;;;;;;;-0.79;43.02;102598.16;4961704;28;20528;-78
2022/03/10 05:36:17;;;;;;;15.63;7.57;;;;;;;-0.76;42.94;102602.50;4973195;28;20113;-79
2022/03/10 05:38:42;;;;;;;18.92;8.13;;;;;;;-0.74;43.24;102606.00;4963687;28;20052;-79
2022/03/10 05:41:09;;;;;;;15.77;8.55;;;;;;;-0.70;42.87;102597.59;4968610;28;20041;-80
2022/03/10 05:43:35;;;;;;;14.30;8.27;;;;;;;-0.85;43.16;102602.19;4965375;28;20043;-79
2022/03/10 05:46:01;;;;;;;17.55;8.50;;;;;;;-0.77;43.15;102593.94;4962603;28;20026;-80
2022/03/10 05:48:27;;;;;;;12.05;7.05;;;;;;;-0.73;43.04;102602.59;4975704;28;20058;-79
2022/03/10 05:50:52;;;;;;;14.82;7.75;;;;;;;-0.71;42.86;102597.53;4973548;28;20080;-79
2022/03/10 05:53:18;;;;;;;14.48;8.57;;;;;;;-0.60;42.75;102599.66;4973314;28;20053;-80
2022/03/10 05:55:43;;;;;;;12.30;7.28;;;;;;;-0.56;42.55;102601.50;4979358;28;20019;-80
2022/03/10 05:58:09;;;;;;;16.33;8.27;;;;;;;-0.53;42.49;102597.28;4972958;28;20512;-79
2022/03/10 06:00:34;;;;;;;18.05;8.93;;;;;;;-0.56;42.57;102593.78;4955463;28;20367;-79
2022/03/10 06:03:00;;;;;;;16.52;9.10;;;;;;;-0.52;42.63;102599.06;4963679;28;20064;-79
2022/03/10 06:05:25;;;;;;;14.05;7.38;;;;;;;-0.46;42.48;102601.81;4962164;28;20040;-79
2022/03/10 06:07:51;;;;;;;20.40;8.18;;;;;;;-0.52;42.43;102604.19;4972853;28;20181;-80
2022/03/10 06:10:16;;;;;;;15.40;7.55;;;;;;;-0.35;41.90;102606.50;4975910;28;20026;-82
2022/03/10 06:12:43;;;;;;;14.90;8.15;;;;;;;-0.35;41.72;102610.75;4978385;28;20050;-77
2022/03/10 06:15:10;;;;;;;15.73;7.15;;;;;;;-0.30;41.84;102618.59;4967530;28;20046;-79
2022/03/10 06:17:36;;;;;;;13.55;7.57;;;;;;;-0.40;42.29;102618.31;4964027;28;20559;-80
2022/03/10 06:20:04;;;;;;;14.23;7.38;;;;;;;-0.34;41.68;102620.22;4963688;28;20046;-79
2022/03/10 06:22:30;;;;;;;19.40;8.23;;;;;;;-0.32;42.02;102620.28;4962937;28;20050;-80
2022/03/10 06:24:57;;;;;;;14.88;7.97;;;;;;;-0.27;41.86;102616.16;4966379;28;20064;-81
2022/03/10 06:27:23;;;;;;;15.95;7.85;;;;;;;-0.28;41.69;102623.00;4967457;28;20127;-80
2022/03/10 06:29:50;;;;;;;13.48;8.20;;;;;;;-0.22;41.94;102612.03;4970597;28;20454;-79
2022/03/10 06:32:17;;;;;;;14.32;8.00;;;;;;;-0.22;41.79;102612.03;4997834;28;20042;-80
2022/03/10 06:34:43;;;;;;;14.73;7.15;;;;;;;-0.22;41.96;102628.31;4986324;28;20038;-81
2022/03/10 06:37:08;;;;;;;17.05;8.13;;;;;;;-0.13;41.69;102622.59;4979039;28;20473;-79
2022/03/10 06:39:34;;;;;;;16.38;7.90;;;;;;;-0.07;41.73;102622.81;4979897;28;20127;-79
2022/03/10 06:42:00;;;;;;;16.10;8.77;;;;;;;-0.01;41.82;102627.28;4963835;28;20068;-79
2022/03/10 06:44:26;;;;;;;14.75;6.97;;;;;;;-0.05;41.85;102621.16;4983543;28;20105;-79
2022/03/10 06:46:52;;;;;;;17.23;8.55;;;;;;;0.07;41.49;102626.69;4964204;28;20484;-79
2022/03/10 06:49:18;;;;;;;16.83;7.80;;;;;;;0.51;41.31;102631.47;4960233;28;20065;-79
2022/03/10 06:51:43;;;;;;;12.48;7.13;;;;;;;1.67;39.91;102630.41;4975935;28;20038;-79
2022/03/10 06:54:10;;;;;;;15.18;7.65;;;;;;;3.08;36.88;102637.84;4972829;28;20477;-78
2022/03/10 06:56:35;;;;;;;13.57;7.40;;;;;;;5.23;33.52;102634.28;4974905;28;20519;-79
2022/03/10 06:59:01;;;;;;;15.75;8.30;;;;;;;6.41;28.71;102639.56;4969543;28;20034;-80
2022/03/10 07:01:26;;;;;;;9.70;7.20;;;;;;;7.18;28.19;102633.81;4978682;28;20050;-80
2022/03/10 07:03:54;;;;;;;14.93;7.05;;;;;;;7.54;27.57;102635.59;4969292;28;20046;-79
2022/03/10 07:06:19;;;;;;;16.23;8.88;;;;;;;8.47;26.14;102628.56;4961294;28;20042;-79
2022/03/10 07:08:44;;;;;;;14.18;8.77;;;;;;;8.75;25.10;102632.84;4958657;28;20061;-80
2022/03/10 07:11:10;;;;;;;13.57;7.07;;;;;;;9.26;24.88;102636.94;4967894;28;20039;-80
2022/03/10 07:13:36;;;;;;;15.07;8.13;;;;;;;9.49;24.18;102632.41;4973112;28;20038;-80
2022/03/10 07:16:02;;;;;;;12.57;7.38;;;;;;;9.67;24.60;102634.00;4961090;28;20370;-80
2022/03/10 07:18:27;;;;;;;13.40;7.85;;;;;;;10.98;22.38;102630.91;4953753;28;20105;-78
2022/03/10 07:20:53;;;;;;;13.38;8.00;;;;;;;10.46;23.19;102628.94;4975818;28;20030;-76
2022/03/10 07:23:18;;;;;;;13.98;8.85;;;;;;;10.45;23.10;102618.50;4970592;28;20071;-78
2022/03/10 07:25:43;;;;;;;16.20;7.75;;;;;;;10.90;22.66;102629.28;4970745;28;20049;-79
2022/03/10 07:28:10;;;;;;;13.20;7.88;;;;;;;11.50;22.48;102628.41;4960331;28;20108;-77
2022/03/10 07:30:35;;;;;;;14.10;7.80;;;;;;;11.45;22.24;102624.09;4974648;28;20042;-78
2022/03/10 07:33:01;;;;;;;13.65;8.63;;;;;;;11.93;21.47;102623.31;4959881;28;20042;-77
2022/03/10 07:35:27;;;;;;;11.65;7.75;;;;;;;11.95;21.65;102624.16;4975893;28;20042;-80
2022/03/10 07:37:55;;;;;;;18.67;7.60;;;;;;;12.44;21.29;102614.50;4985940;28;20054;-80
2022/03/10 07:40:22;;;;;;;9.75;6.85;;;;;;;12.37;21.37;102616.38;4975523;28;20034;-79
2022/03/10 07:42:47;;;;;;;12.35;8.23;;;;;;;12.34;21.16;102613.84;4954183;28;20671;-79
2022/03/10 07:45:13;;;;;;;12.65;8.40;;;;;;;12.76;21.21;102623.50;4970170;28;20030;-79
2022/03/10 07:47:39;;;;;;;11.65;8.35;;;;;;;13.43;20.41;102624.59;4959044;28;20509;-80
2022/03/10 07:50:06;;;;;;;13.82;7.85;;;;;;;12.65;20.95;102621.94;4975041;28;20042;-79
2022/03/10 07:52:32;;;;;;;12.48;7.65;;;;;;;11.02;23.08;102623.91;4956775;28;20576;-77
2022/03/10 07:54:58;;;;;;;12.20;7.53;;;;;;;11.31;22.17;102627.81;4961948;28;20115;-78
2022/03/10 07:57:23;;;;;;;9.52;6.78;;;;;;;12.58;21.89;102628.22;4975733;28;20445;-78
2022/03/10 07:59:50;;;;;;;15.95;8.20;;;;;;;12.74;20.23;102634.03;4964176;28;20034;-78
2022/03/10 08:02:16;;;;;;;11.68;7.93;;;;;;;13.10;20.14;102627.13;4962744;28;20088;-80
2022/03/10 08:04:41;;;;;;;15.13;8.07;;;;;;;13.16;20.04;102625.22;4976169;28;20071;-80
2022/03/10 08:07:07;;;;;;;12.90;7.70;;;;;;;12.50;20.56;102630.13;4972140;28;20428;-77
2022/03/10 08:09:32;;;;;;;12.25;8.48;;;;;;;12.75;20.33;102613.91;4963217;28;20030;-81
2022/03/10 08:11:58;;;;;;;15.63;7.63;;;;;;;12.51;20.76;102618.72;4957025;28;20135;-79
2022/03/10 08:14:23;;;;;;;13.38;7.80;;;;;;;12.66;21.25;102615.78;4987533;28;20513;-80
2022/03/10 08:16:49;;;;;;;12.68;7.68;;;;;;;12.42;21.26;102629.41;4960994;28;21565;-79
2022/03/10 08:19:14;;;;;;;12.07;7.63;;;;;;;12.21;21.26;102621.06;4977202;28;20046;-81
2022/03/10 08:21:40;;;;;;;10.15;7.53;;;;;;;12.45;21.34;102611.00;4970130;28;20037;-78
2022/03/10 08:24:05;;;;;;;18.45;7.57;;;;;;;12.70;20.75;102612.25;4961684;28;20081;-80
2022/03/10 08:26:32;;;;;;;12.32;7.28;;;;;;;12.21;21.22;102607.09;4973416;28;20030;-79
2022/03/10 08:28:57;;;;;;;14.95;7.93;;;;;;;11.71;21.51;102606.22;4955667;28;20039;-80
2022/03/10 08:31:23;;;;;;;11.57;7.25;;;;;;;11.18;22.97;102621.94;4960860;28;20038;-80
2022/03/10 08:33:50;;;;;;;9.30;6.43;;;;;;;11.20;23.12;102607.94;4960242;28;20460;-81
2022/03/10 08:36:16;;;;;;;11.35;7.22;;;;;;;11.23;22.66;102609.63;4969215;28;20041;-80
2022/03/10 08:38:42;;;;;;;13.70;7.13;;;;;;;11.83;22.41;102613.91;4958481;28;20031;-79
2022/03/10 08:41:08;;;;;;;13.55;7.40;;;;;;;12.10;21.83;102609.94;4974048;28;20035;-82
2022/03/10 08:43:34;;;;;;;17.85;7.97;;;;;;;12.21;21.79;102610.59;4974795;28;20044;-81
2022/03/10 08:46:01;;;;;;;11.48;7.15;;;;;;;11.85;22.61;102610.38;4974548;28;20019;-80
2022/03/10 08:48:27;;;;;;;13.13;7.28;;;;;;;12.77;21.61;102604.25;4995441;28;20026;-78
2022/03/10 08:50:53;;;;;;;16.25;7.82;;;;;;;13.06;21.26;102601.81;4982021;28;20090;-76
2022/03/10 08:53:19;;;;;;;16.13;8.25;;;;;;;13.27;20.53;102615.34;4985351;28;20134;-77
2022/03/10 08:55:44;;;;;;;13.05;7.38;;;;;;;12.95;21.55;102611.72;4960792;28;20121;-80
2022/03/10 08:58:09;;;;;;;13.07;7.60;;;;;;;12.39;22.02;102611.13;4974187;28;20125;-79
2022/03/10 09:00:35;;;;;;;14.77;7.82;;;;;;;12.57;22.33;102602.03;4976792;28;20039;-80
2022/03/10 09:03:01;;;;;;;13.82;7.25;;;;;;;11.51;22.71;102598.72;4959696;28;20100;-80
2022/03/10 09:05:27;;;;;;;11.07;8.25;;;;;;;11.12;23.66;102593.22;4959046;28;20092;-80
2022/03/10 09:07:53;;;;;;;11.18;7.25;;;;;;;10.41;24.61;102588.91;4970351;28;20448;-80
2022/03/10 09:10:18;;;;;;;13.73;6.68;;;;;;;10.22;24.73;102594.34;4961497;28;20057;-80
2022/03/10 09:12:44;;;;;;;11.20;7.00;;;;;;;10.13;25.29;102585.75;4964257;28;20062;-80
2022/03/10 09:19:08;;;;;;;16.60;7.80;;;;;;;10.07;25.09;102585.81;4494736;27;15814169;-74
2022/03/10 09:25:36;;;;;;;11.38;7.57;;;;;;;10.19;25.60;102586.56;4978159;28;20037;-75
2022/03/10 09:29:04;;;;;;;8.52;7.30;;;;;;;10.15;25.48;102587.47;4952679;28;20039;-76
2022/03/10 09:32:19;;;;;;;9.65;6.50;;;;;;;10.24;25.08;102588.25;5057239;28;20044;-75
2022/03/10 09:35:27;;;;;;;8.52;6.55;;;;;;;10.09;24.54;102590.13;5020682;28;20182;-75
2022/03/10 09:46:09;;;;;;;;;;;;;;;;;;;;;
2022/03/10 09:49:25;;;;;;;10.07;6.28;;;;;;;10.88;24.27;102574.38;5006056;28;20148;-76
2022/03/10 10:04:49;;;;;;;8.63;6.93;;;;;;;11.61;23.83;102564.50;4889672;29;20174;-75
2022/03/10 10:19:44;;;;;;;11.63;6.22;;;;;;;11.42;23.50;102556.09;4874253;28;20183;-75
2022/03/10 10:30:58;;;;;;;12.07;7.07;;;;;;;12.04;23.33;102552.38;4983896;28;20073;-75
2022/03/10 10:41:34;;;;;;;10.93;7.63;;;;;;;12.89;22.56;102548.84;4986756;28;20049;-73
2022/03/10 10:44:36;;;;;;;16.80;7.78;;;;;;;12.56;22.68;102551.31;4975467;28;20053;-74
2022/03/10 10:51:03;;;;;;;11.07;6.80;;;;;;;12.46;22.99;102541.91;4970857;28;20049;-74
2022/03/10 10:54:32;;;;;;;12.70;7.70;;;;;;;12.00;22.65;102540.22;4971464;28;20611;-75
2022/03/10 11:17:26;;;;;;;;;;;;;;;;;;;;;
2022/03/10 11:29:02;;;;;;;13.38;7.15;;;;;;;12.86;23.14;102517.44;4956668;28;20094;-74
2022/03/10 11:32:09;;;;;;;12.07;8.05;;;;;;;12.39;23.01;102507.09;5005365;28;20103;-75
2022/03/10 11:34:49;;;;;;;12.25;6.93;;;;;;;12.58;22.87;102510.19;5045519;28;20126;-76
2022/03/10 11:45:28;;;;;;;9.55;7.20;;;;;;;13.23;22.24;102498.19;4948620;28;20050;-74
2022/03/10 11:48:24;;;;;;;9.52;6.47;;;;;;;12.47;22.61;102499.94;5011432;28;20048;-75
2022/03/10 11:58:39;;;;;;;11.98;7.00;;;;;;;13.69;22.04;102491.72;5059719;28;20047;-75
2022/03/10 12:04:48;;;;;;;11.77;6.63;;;;;;;13.29;21.86;102482.25;4990791;28;20052;-75
2022/03/10 12:07:58;;;;;;;13.48;7.03;;;;;;;12.62;22.47;102477.72;5059544;28;20033;-74
2022/03/10 12:11:35;;;;;;;8.13;6.65;;;;;;;13.30;22.57;102463.00;5013610;28;20064;-74
2022/03/10 12:22:02;;;;;;;13.80;6.68;;;;;;;13.61;22.29;102465.69;4971631;28;20128;-75
2022/03/10 12:25:40;;;;;;;10.88;6.93;;;;;;;13.88;21.29;102466.66;4987986;28;20045;-75
2022/03/10 12:32:20;;;;;;;11.80;6.65;;;;;;;13.37;21.84;102471.56;4926584;28;20047;-75
2022/03/10 12:35:15;;;;;;;;;;;;;;;;;;;;;
2022/03/10 12:37:52;;;;;;;10.93;6.53;;;;;;;13.03;21.83;102462.78;4831389;29;20123;-75
2022/03/10 12:41:28;;;;;;;7.80;6.20;;;;;;;13.63;22.04;102463.00;4849625;29;20159;-75
2022/03/10 12:43:55;;;;;;;11.63;6.35;;;;;;;14.01;21.38;102453.16;4866562;29;20041;-74
2022/03/10 12:46:53;;;;;;;9.10;6.95;;;;;;;13.74;21.45;102455.66;4941651;28;20053;-73
2022/03/10 12:49:23;;;;;;;11.13;6.45;;;;;;;13.34;21.47;102454.13;5038235;28;20037;-74
2022/03/10 12:53:07;;;;;;;8.15;5.70;;;;;;;13.78;20.98;102457.31;5046149;28;20039;-74
2022/03/10 12:56:35;;;;;;;9.43;6.43;;;;;;;14.12;21.38;102446.69;5074781;28;20071;-74
2022/03/10 12:59:01;;;;;;;7.82;5.80;;;;;;;13.65;20.97;102456.81;5030353;28;20110;-73
2022/03/10 13:02:27;;;;;;;9.85;6.85;;;;;;;13.81;21.06;102461.59;5061181;28;20941;-73
2022/03/10 13:05:38;;;;;;;10.18;6.60;;;;;;;13.26;21.14;102450.84;5041389;28;20410;-73
2022/03/10 13:13:13;;;;;;;10.88;6.85;;;;;;;13.86;21.43;102439.56;4960037;28;20038;-74
2022/03/10 13:16:49;;;;;;;9.85;6.30;;;;;;;14.06;21.42;102446.00;4980387;28;20175;-73
2022/03/10 13:20:08;;;;;;;8.60;5.75;;;;;;;13.88;21.08;102444.78;4934096;28;20057;-74
2022/03/10 13:23:28;;;;;;;9.45;6.53;;;;;;;14.16;21.34;102442.19;4922473;28;20045;-75
2022/03/10 13:31:36;;;;;;;7.53;6.53;;;;;;;14.81;19.54;102430.50;4943200;28;20101;-73
2022/03/10 13:43:44;;;;;;;9.68;6.45;;;;;;;14.82;19.17;102410.31;4766766;29;20581;-73
2022/03/10 13:59:04;;;;;;;8.13;6.00;;;;;;;14.48;19.82;102390.41;4781457;29;20404;-74
2022/03/10 14:02:10;;;;;;;;;;;;;;;;;;;;;
2022/03/10 14:14:05;;;;;;;8.15;5.85;;;;;;;14.74;19.67;102385.09;4836353;29;20498;-73
2022/03/10 14:21:10;;;;;;;10.43;4.90;;;;;;;14.26;18.99;102388.41;4788680;29;20147;-74
2022/03/10 14:28:46;;;;;;;7.97;5.38;;;;;;;14.91;19.70;102373.16;4916714;29;20558;-75
2022/03/10 14:31:34;;;;;;;9.32;5.90;;;;;;;13.90;20.21;102378.13;4961007;28;20041;-74
2022/03/10 14:34:51;;;;;;;6.85;5.35;;;;;;;13.88;19.81;102379.94;4990898;28;20041;-74
2022/03/10 14:37:44;;;;;;;7.15;5.55;;;;;;;13.63;21.09;102365.78;4984509;28;20273;-74
2022/03/10 14:44:36;;;;;;;16.23;6.63;;;;;;;13.87;20.45;102361.56;4996634;28;20108;-75
2022/03/10 14:47:52;;;;;;;7.85;5.90;;;;;;;13.96;20.25;102366.53;4956462;28;20157;-74
2022/03/10 14:50:39;;;;;;;7.15;5.97;;;;;;;13.89;20.72;102376.38;5053597;28;20179;-75